Terminal Aerodrome Forecast
Issued by NWS

Home | Current Version | Previous Version | Text Only | Print | Product List | Glossary Off
Versions: 1 2 3 4 5 6 7 8 9 10 11 12

000
FTUS42 KMHX 191143
TAFISO
TAF
KISO 191143Z 1912/2012 22012G22KT P6SM -RA BKN035 OVC090
     FM191300 31015G25KT P6SM BKN045
     FM192100 31006KT P6SM SKC
      AMD LTD TO CLD VIS AND WIND=

USA.gov is the U.S. government's official web portal to all federal, state and local government web resources and services.